Spicer, Minnesota
Current Conditions -  °F | °C
As of 10:35 PM on Sunday 25 Jan 2015 (Local Time) from KBDH Reporting Station
Broken Clouds Broken Clouds  
Wind Chill: 30°   Ceiling: 2400
Heat Index: 30°   Visibility: 10mi
Dew Point: 27°   Wind: 3mph
Humidity: 86%   Direction: 200°SSW
Pressure: 29.96"   Gusts: NA
Location:  45.23°N, 94.94°W
Report Text: KBDH 260435Z AUTO 20003KT 10SM SCT007 BKN024 M01/M03 A2996 RMK AO2
Loading
Personal Weather Stations






























Interactive Weather Map New forecast layout! Learn more

10-Day Weather Forecast

Advertisements
Track Severe Weather on mobile